Terminal Aerodrome Forecast
Issued by NWS

Home | Current Version | Previous Version | Text Only | Print | Product List | Glossary On
Versions: 1 2 3 4 5 6 7 8 9 10 11 12 13 14
482
FTUS44 KCRP 110737 AAB
TAFALI
TAF AMD
KALI 110737Z 1108/1206 VRB03KT 1SM -RADZ BR OVC004 WS020/17040KT
      TEMPO 1108/1112 3/4SM BR
     FM111500 19008KT P6SM OVC012
     FM111800 19014KT P6SM OVC018
     FM120000 17006KT 4SM BR OVC009=

USA.gov is the U.S. government's official web portal to all federal, state and local government web resources and services.